sensor_id;sensor_type;location;lat;lon;timestamp;temperature;humidity
40287;DHT22;25998;46.604;13.610;2024-02-21T00:02:14;4.30;96.90
40287;DHT22;25998;46.604;13.610;2024-02-21T00:05:25;4.40;97.00
40287;DHT22;25998;46.604;13.610;2024-02-21T00:08:36;4.40;96.50
40287;DHT22;25998;46.604;13.610;2024-02-21T00:11:47;4.40;96.40
40287;DHT22;25998;46.604;13.610;2024-02-21T00:14:58;4.50;96.30
40287;DHT22;25998;46.604;13.610;2024-02-21T00:18:09;4.40;96.70
40287;DHT22;25998;46.604;13.610;2024-02-21T00:21:21;4.20;97.10
40287;DHT22;25998;46.604;13.610;2024-02-21T00:24:32;4.00;97.10
40287;DHT22;25998;46.604;13.610;2024-02-21T00:27:43;3.90;97.10
40287;DHT22;25998;46.604;13.610;2024-02-21T00:30:54;3.80;97.50
40287;DHT22;25998;46.604;13.610;2024-02-21T00:34:05;3.90;97.40
40287;DHT22;25998;46.604;13.610;2024-02-21T00:37:16;3.80;97.30
40287;DHT22;25998;46.604;13.610;2024-02-21T00:40:26;3.70;97.60
40287;DHT22;25998;46.604;13.610;2024-02-21T00:43:37;3.70;97.60
40287;DHT22;25998;46.604;13.610;2024-02-21T00:46:48;3.80;97.40
40287;DHT22;25998;46.604;13.610;2024-02-21T00:49:59;3.80;97.50
40287;DHT22;25998;46.604;13.610;2024-02-21T00:53:10;3.80;97.80
40287;DHT22;25998;46.604;13.610;2024-02-21T00:56:21;4.00;97.70
40287;DHT22;25998;46.604;13.610;2024-02-21T00:59:31;4.00;97.70
40287;DHT22;25998;46.604;13.610;2024-02-21T01:02:42;4.00;97.50
40287;DHT22;25998;46.604;13.610;2024-02-21T01:05:54;3.90;97.80
40287;DHT22;25998;46.604;13.610;2024-02-21T01:09:04;3.70;98.20
40287;DHT22;25998;46.604;13.610;2024-02-21T01:12:15;3.90;98.30
40287;DHT22;25998;46.604;13.610;2024-02-21T01:15:26;3.80;98.20
40287;DHT22;25998;46.604;13.610;2024-02-21T01:18:37;3.90;98.30
40287;DHT22;25998;46.604;13.610;2024-02-21T01:21:50;3.80;98.50
40287;DHT22;25998;46.604;13.610;2024-02-21T01:25:01;3.70;98.30
40287;DHT22;25998;46.604;13.610;2024-02-21T01:28:11;3.40;98.60
40287;DHT22;25998;46.604;13.610;2024-02-21T01:31:22;3.20;99.20
40287;DHT22;25998;46.604;13.610;2024-02-21T01:34:33;3.10;99.20
40287;DHT22;25998;46.604;13.610;2024-02-21T01:37:44;3.00;99.40
40287;DHT22;25998;46.604;13.610;2024-02-21T01:40:55;3.00;99.40
40287;DHT22;25998;46.604;13.610;2024-02-21T01:44:07;3.00;99.20
40287;DHT22;25998;46.604;13.610;2024-02-21T01:47:18;3.00;99.40
40287;DHT22;25998;46.604;13.610;2024-02-21T01:50:29;3.10;99.10
40287;DHT22;25998;46.604;13.610;2024-02-21T01:53:43;3.10;99.10
40287;DHT22;25998;46.604;13.610;2024-02-21T01:56:54;3.00;99.00
40287;DHT22;25998;46.604;13.610;2024-02-21T02:00:06;2.90;99.40
40287;DHT22;25998;46.604;13.610;2024-02-21T02:03:17;2.90;99.80
40287;DHT22;25998;46.604;13.610;2024-02-21T02:06:29;3.00;99.40
40287;DHT22;25998;46.604;13.610;2024-02-21T02:09:42;3.20;99.50
40287;DHT22;25998;46.604;13.610;2024-02-21T02:12:53;3.10;99.10
40287;DHT22;25998;46.604;13.610;2024-02-21T02:16:04;3.10;99.50
40287;DHT22;25998;46.604;13.610;2024-02-21T02:19:15;3.10;99.70
40287;DHT22;25998;46.604;13.610;2024-02-21T02:22:28;3.30;99.80
40287;DHT22;25998;46.604;13.610;2024-02-21T02:25:40;3.50;99.10
40287;DHT22;25998;46.604;13.610;2024-02-21T02:28:51;3.70;98.90
40287;DHT22;25998;46.604;13.610;2024-02-21T02:32:02;3.70;98.40
40287;DHT22;25998;46.604;13.610;2024-02-21T02:35:13;3.70;99.00
40287;DHT22;25998;46.604;13.610;2024-02-21T02:38:24;3.80;98.60
40287;DHT22;25998;46.604;13.610;2024-02-21T02:41:36;3.70;98.80
40287;DHT22;25998;46.604;13.610;2024-02-21T02:44:47;3.70;99.30
40287;DHT22;25998;46.604;13.610;2024-02-21T02:47:58;3.80;99.30
40287;DHT22;25998;46.604;13.610;2024-02-21T02:51:09;3.80;98.90
40287;DHT22;25998;46.604;13.610;2024-02-21T02:54:20;3.90;98.90
40287;DHT22;25998;46.604;13.610;2024-02-21T02:57:31;4.00;99.10
40287;DHT22;25998;46.604;13.610;2024-02-21T03:00:42;4.10;98.90
40287;DHT22;25998;46.604;13.610;2024-02-21T03:03:53;4.10;98.80
40287;DHT22;25998;46.604;13.610;2024-02-21T03:07:04;4.10;98.40
40287;DHT22;25998;46.604;13.610;2024-02-21T03:10:15;4.00;98.50
40287;DHT22;25998;46.604;13.610;2024-02-21T03:13:29;3.90;98.60
40287;DHT22;25998;46.604;13.610;2024-02-21T03:16:40;3.70;98.90
40287;DHT22;25998;46.604;13.610;2024-02-21T03:19:51;3.60;99.20
40287;DHT22;25998;46.604;13.610;2024-02-21T03:23:03;3.50;99.50
40287;DHT22;25998;46.604;13.610;2024-02-21T03:26:14;3.50;99.70
40287;DHT22;25998;46.604;13.610;2024-02-21T03:29:27;3.40;99.90
40287;DHT22;25998;46.604;13.610;2024-02-21T03:32:38;3.40;99.90
40287;DHT22;25998;46.604;13.610;2024-02-21T03:35:49;3.20;99.90
40287;DHT22;25998;46.604;13.610;2024-02-21T03:39:00;3.30;99.90
40287;DHT22;25998;46.604;13.610;2024-02-21T03:42:11;3.50;99.90
40287;DHT22;25998;46.604;13.610;2024-02-21T03:45:22;3.40;99.90
40287;DHT22;25998;46.604;13.610;2024-02-21T03:48:33;3.20;99.90
40287;DHT22;25998;46.604;13.610;2024-02-21T03:51:44;3.40;99.90
40287;DHT22;25998;46.604;13.610;2024-02-21T03:54:55;3.50;99.90
40287;DHT22;25998;46.604;13.610;2024-02-21T03:58:06;3.60;99.60
40287;DHT22;25998;46.604;13.610;2024-02-21T04:01:17;3.70;99.80
40287;DHT22;25998;46.604;13.610;2024-02-21T04:04:28;3.70;99.50
40287;DHT22;25998;46.604;13.610;2024-02-21T04:07:38;3.80;99.40
40287;DHT22;25998;46.604;13.610;2024-02-21T04:10:50;3.70;99.40
40287;DHT22;25998;46.604;13.610;2024-02-21T04:14:00;3.50;99.20
40287;DHT22;25998;46.604;13.610;2024-02-21T04:17:11;3.10;99.90
40287;DHT22;25998;46.604;13.610;2024-02-21T04:20:22;2.90;99.90
40287;DHT22;25998;46.604;13.610;2024-02-21T04:23:33;2.80;99.90
40287;DHT22;25998;46.604;13.610;2024-02-21T04:26:44;2.70;99.90
40287;DHT22;25998;46.604;13.610;2024-02-21T04:29:55;2.60;99.90
40287;DHT22;25998;46.604;13.610;2024-02-21T04:33:06;2.60;99.90
40287;DHT22;25998;46.604;13.610;2024-02-21T04:36:17;2.60;99.90
40287;DHT22;25998;46.604;13.610;2024-02-21T04:39:28;2.80;99.90
40287;DHT22;25998;46.604;13.610;2024-02-21T04:42:39;2.90;99.90
40287;DHT22;25998;46.604;13.610;2024-02-21T04:45:49;2.90;99.90
40287;DHT22;25998;46.604;13.610;2024-02-21T04:49:01;2.90;99.90
40287;DHT22;25998;46.604;13.610;2024-02-21T04:52:12;2.90;99.90
40287;DHT22;25998;46.604;13.610;2024-02-21T04:55:23;2.80;99.90
40287;DHT22;25998;46.604;13.610;2024-02-21T04:58:38;2.80;99.90
40287;DHT22;25998;46.604;13.610;2024-02-21T05:01:49;2.80;99.90
40287;DHT22;25998;46.604;13.610;2024-02-21T05:05:00;3.00;99.90
40287;DHT22;25998;46.604;13.610;2024-02-21T05:08:11;3.10;99.90
40287;DHT22;25998;46.604;13.610;2024-02-21T05:11:22;3.00;99.90
40287;DHT22;25998;46.604;13.610;2024-02-21T05:14:33;2.80;99.90
40287;DHT22;25998;46.604;13.610;2024-02-21T05:17:43;2.60;99.90
40287;DHT22;25998;46.604;13.610;2024-02-21T05:20:54;2.70;99.90
40287;DHT22;25998;46.604;13.610;2024-02-21T05:24:05;2.60;99.90
40287;DHT22;25998;46.604;13.610;2024-02-21T05:27:16;2.40;99.90
40287;DHT22;25998;46.604;13.610;2024-02-21T05:30:27;2.40;99.90
40287;DHT22;25998;46.604;13.610;2024-02-21T05:33:38;2.40;99.90
40287;DHT22;25998;46.604;13.610;2024-02-21T05:36:49;2.40;99.90
40287;DHT22;25998;46.604;13.610;2024-02-21T05:40:00;2.60;99.90
40287;DHT22;25998;46.604;13.610;2024-02-21T05:43:11;2.70;99.90
40287;DHT22;25998;46.604;13.610;2024-02-21T05:46:22;2.90;99.90
40287;DHT22;25998;46.604;13.610;2024-02-21T05:49:33;3.00;99.90
40287;DHT22;25998;46.604;13.610;2024-02-21T05:52:43;3.00;99.60
40287;DHT22;25998;46.604;13.610;2024-02-21T05:55:54;2.90;99.20
40287;DHT22;25998;46.604;13.610;2024-02-21T05:59:05;2.90;99.60
40287;DHT22;25998;46.604;13.610;2024-02-21T06:02:16;2.90;99.80
40287;DHT22;25998;46.604;13.610;2024-02-21T06:05:27;2.70;99.50
40287;DHT22;25998;46.604;13.610;2024-02-21T06:08:40;2.40;99.90
40287;DHT22;25998;46.604;13.610;2024-02-21T06:11:50;2.30;99.90
40287;DHT22;25998;46.604;13.610;2024-02-21T06:15:01;2.20;99.90
40287;DHT22;25998;46.604;13.610;2024-02-21T06:18:13;2.20;99.90
40287;DHT22;25998;46.604;13.610;2024-02-21T06:21:23;2.50;99.90
40287;DHT22;25998;46.604;13.610;2024-02-21T06:24:39;2.60;99.90
40287;DHT22;25998;46.604;13.610;2024-02-21T06:27:50;2.40;99.90
40287;DHT22;25998;46.604;13.610;2024-02-21T06:31:01;2.30;99.90
40287;DHT22;25998;46.604;13.610;2024-02-21T06:34:11;2.40;99.90
40287;DHT22;25998;46.604;13.610;2024-02-21T06:37:22;2.40;99.90
40287;DHT22;25998;46.604;13.610;2024-02-21T06:40:33;2.40;99.90
40287;DHT22;25998;46.604;13.610;2024-02-21T06:43:50;2.40;99.90
40287;DHT22;25998;46.604;13.610;2024-02-21T06:47:01;2.60;99.90
40287;DHT22;25998;46.604;13.610;2024-02-21T06:50:12;2.60;99.90
40287;DHT22;25998;46.604;13.610;2024-02-21T06:53:23;2.60;99.90
40287;DHT22;25998;46.604;13.610;2024-02-21T06:56:34;2.60;99.90
40287;DHT22;25998;46.604;13.610;2024-02-21T06:59:44;2.70;99.90
40287;DHT22;25998;46.604;13.610;2024-02-21T07:02:55;2.80;99.90
40287;DHT22;25998;46.604;13.610;2024-02-21T07:06:06;2.90;99.90
40287;DHT22;25998;46.604;13.610;2024-02-21T07:09:17;3.10;99.90
40287;DHT22;25998;46.604;13.610;2024-02-21T07:12:28;3.30;99.90
40287;DHT22;25998;46.604;13.610;2024-02-21T07:15:39;3.40;99.90
40287;DHT22;25998;46.604;13.610;2024-02-21T07:18:50;3.40;99.80
40287;DHT22;25998;46.604;13.610;2024-02-21T07:22:01;3.50;99.50
40287;DHT22;25998;46.604;13.610;2024-02-21T07:25:12;3.60;99.90
40287;DHT22;25998;46.604;13.610;2024-02-21T07:28:22;3.80;99.90
40287;DHT22;25998;46.604;13.610;2024-02-21T07:31:41;3.80;99.90
40287;DHT22;25998;46.604;13.610;2024-02-21T07:34:53;3.90;99.90
40287;DHT22;25998;46.604;13.610;2024-02-21T07:38:04;4.10;99.90
40287;DHT22;25998;46.604;13.610;2024-02-21T07:41:16;4.40;99.90
40287;DHT22;25998;46.604;13.610;2024-02-21T07:44:26;4.50;99.90
40287;DHT22;25998;46.604;13.610;2024-02-21T07:47:37;4.50;99.90
40287;DHT22;25998;46.604;13.610;2024-02-21T07:50:49;4.40;99.90
40287;DHT22;25998;46.604;13.610;2024-02-21T07:54:00;4.40;99.90
40287;DHT22;25998;46.604;13.610;2024-02-21T07:57:11;4.40;99.90
40287;DHT22;25998;46.604;13.610;2024-02-21T08:00:22;4.50;99.90
40287;DHT22;25998;46.604;13.610;2024-02-21T08:03:33;4.60;99.90
40287;DHT22;25998;46.604;13.610;2024-02-21T08:06:43;4.60;99.50
40287;DHT22;25998;46.604;13.610;2024-02-21T08:09:55;4.60;98.10
40287;DHT22;25998;46.604;13.610;2024-02-21T08:13:06;4.60;97.70
40287;DHT22;25998;46.604;13.610;2024-02-21T08:16:18;4.70;98.00
40287;DHT22;25998;46.604;13.610;2024-02-21T08:19:28;4.80;97.90
40287;DHT22;25998;46.604;13.610;2024-02-21T08:22:39;4.80;97.70
40287;DHT22;25998;46.604;13.610;2024-02-21T08:25:50;5.00;97.40
40287;DHT22;25998;46.604;13.610;2024-02-21T08:29:01;5.20;97.80
40287;DHT22;25998;46.604;13.610;2024-02-21T08:32:12;6.00;98.00
40287;DHT22;25998;46.604;13.610;2024-02-21T08:35:23;6.90;97.10
40287;DHT22;25998;46.604;13.610;2024-02-21T08:38:34;7.70;95.50
40287;DHT22;25998;46.604;13.610;2024-02-21T08:41:45;8.10;93.80
40287;DHT22;25998;46.604;13.610;2024-02-21T08:44:56;8.50;93.60
40287;DHT22;25998;46.604;13.610;2024-02-21T08:48:07;8.90;92.30
40287;DHT22;25998;46.604;13.610;2024-02-21T08:51:19;9.30;91.00
40287;DHT22;25998;46.604;13.610;2024-02-21T08:54:30;9.80;91.40
40287;DHT22;25998;46.604;13.610;2024-02-21T08:57:41;10.00;91.00
40287;DHT22;25998;46.604;13.610;2024-02-21T09:00:52;10.30;90.30
40287;DHT22;25998;46.604;13.610;2024-02-21T09:04:02;10.50;90.40
40287;DHT22;25998;46.604;13.610;2024-02-21T09:07:13;10.50;90.00
40287;DHT22;25998;46.604;13.610;2024-02-21T09:10:24;11.00;89.20
40287;DHT22;25998;46.604;13.610;2024-02-21T09:13:35;11.00;88.90
40287;DHT22;25998;46.604;13.610;2024-02-21T09:16:46;11.00;89.20
40287;DHT22;25998;46.604;13.610;2024-02-21T09:19:57;11.30;89.30
40287;DHT22;25998;46.604;13.610;2024-02-21T09:23:13;11.90;89.40
40287;DHT22;25998;46.604;13.610;2024-02-21T09:26:24;12.00;83.90
40287;DHT22;25998;46.604;13.610;2024-02-21T09:29:35;11.60;86.40
40287;DHT22;25998;46.604;13.610;2024-02-21T09:32:47;11.60;87.50
40287;DHT22;25998;46.604;13.610;2024-02-21T09:35:58;11.20;86.90
40287;DHT22;25998;46.604;13.610;2024-02-21T09:39:10;11.00;88.40
40287;DHT22;25998;46.604;13.610;2024-02-21T09:42:31;11.20;88.30
40287;DHT22;25998;46.604;13.610;2024-02-21T09:45:46;11.10;88.40
40287;DHT22;25998;46.604;13.610;2024-02-21T09:52:32;11.20;88.60
40287;DHT22;25998;46.604;13.610;2024-02-21T09:55:45;11.40;87.50
40287;DHT22;25998;46.604;13.610;2024-02-21T09:58:57;11.20;87.80
40287;DHT22;25998;46.604;13.610;2024-02-21T10:02:09;11.40;87.40
40287;DHT22;25998;46.604;13.610;2024-02-21T10:05:22;11.60;88.60
40287;DHT22;25998;46.604;13.610;2024-02-21T10:08:35;11.50;87.40
40287;DHT22;25998;46.604;13.610;2024-02-21T10:11:46;11.60;89.00
40287;DHT22;25998;46.604;13.610;2024-02-21T10:15:04;11.60;89.60
40287;DHT22;25998;46.604;13.610;2024-02-21T10:18:17;11.70;88.00
40287;DHT22;25998;46.604;13.610;2024-02-21T10:21:29;11.20;86.10
40287;DHT22;25998;46.604;13.610;2024-02-21T10:24:40;11.20;87.60
40287;DHT22;25998;46.604;13.610;2024-02-21T10:27:52;11.20;86.80
40287;DHT22;25998;46.604;13.610;2024-02-21T10:31:04;11.30;87.50
40287;DHT22;25998;46.604;13.610;2024-02-21T10:34:16;11.40;87.10
40287;DHT22;25998;46.604;13.610;2024-02-21T10:37:28;11.80;85.40
40287;DHT22;25998;46.604;13.610;2024-02-21T10:40:39;12.30;84.10
40287;DHT22;25998;46.604;13.610;2024-02-21T10:43:52;12.70;84.80
40287;DHT22;25998;46.604;13.610;2024-02-21T10:47:12;12.80;81.20
40287;DHT22;25998;46.604;13.610;2024-02-21T10:50:31;12.80;82.40
40287;DHT22;25998;46.604;13.610;2024-02-21T10:53:57;12.80;82.10
40287;DHT22;25998;46.604;13.610;2024-02-21T10:57:10;13.00;79.70
40287;DHT22;25998;46.604;13.610;2024-02-21T11:00:24;13.20;80.80
40287;DHT22;25998;46.604;13.610;2024-02-21T11:03:42;13.30;81.10
40287;DHT22;25998;46.604;13.610;2024-02-21T11:06:54;13.30;79.20
40287;DHT22;25998;46.604;13.610;2024-02-21T11:10:05;13.40;80.20
40287;DHT22;25998;46.604;13.610;2024-02-21T11:13:18;13.50;80.50
40287;DHT22;25998;46.604;13.610;2024-02-21T11:16:35;13.60;80.30
40287;DHT22;25998;46.604;13.610;2024-02-21T11:19:47;13.80;77.90
40287;DHT22;25998;46.604;13.610;2024-02-21T11:22:58;13.90;79.30
40287;DHT22;25998;46.604;13.610;2024-02-21T11:26:09;13.80;77.40
40287;DHT22;25998;46.604;13.610;2024-02-21T11:29:24;13.80;77.70
40287;DHT22;25998;46.604;13.610;2024-02-21T11:32:36;13.80;78.10
40287;DHT22;25998;46.604;13.610;2024-02-21T11:35:47;13.90;76.10
40287;DHT22;25998;46.604;13.610;2024-02-21T11:39:04;13.90;78.00
40287;DHT22;25998;46.604;13.610;2024-02-21T11:42:17;14.10;77.30
40287;DHT22;25998;46.604;13.610;2024-02-21T11:45:28;14.00;76.30
40287;DHT22;25998;46.604;13.610;2024-02-21T11:48:41;14.10;77.80
40287;DHT22;25998;46.604;13.610;2024-02-21T11:52:01;13.80;76.80
40287;DHT22;25998;46.604;13.610;2024-02-21T11:55:14;14.00;77.70
40287;DHT22;25998;46.604;13.610;2024-02-21T11:58:25;14.20;76.20
40287;DHT22;25998;46.604;13.610;2024-02-21T12:01:37;14.30;76.20
40287;DHT22;25998;46.604;13.610;2024-02-21T12:04:48;14.40;76.20
40287;DHT22;25998;46.604;13.610;2024-02-21T12:08:00;14.50;78.20
40287;DHT22;25998;46.604;13.610;2024-02-21T12:11:23;14.50;75.90
40287;DHT22;25998;46.604;13.610;2024-02-21T12:14:35;14.40;75.90
40287;DHT22;25998;46.604;13.610;2024-02-21T12:17:46;14.60;76.90
40287;DHT22;25998;46.604;13.610;2024-02-21T12:20:58;14.70;75.60
40287;DHT22;25998;46.604;13.610;2024-02-21T12:24:12;14.40;76.00
40287;DHT22;25998;46.604;13.610;2024-02-21T12:27:25;14.40;75.20
40287;DHT22;25998;46.604;13.610;2024-02-21T12:30:37;14.30;75.80
40287;DHT22;25998;46.604;13.610;2024-02-21T12:33:50;14.60;76.90
40287;DHT22;25998;46.604;13.610;2024-02-21T12:37:02;14.60;76.00
40287;DHT22;25998;46.604;13.610;2024-02-21T12:40:16;14.40;77.20
40287;DHT22;25998;46.604;13.610;2024-02-21T12:43:27;14.00;77.80
40287;DHT22;25998;46.604;13.610;2024-02-21T12:46:38;13.90;78.00
40287;DHT22;25998;46.604;13.610;2024-02-21T12:49:50;14.10;79.00
40287;DHT22;25998;46.604;13.610;2024-02-21T12:53:01;14.10;78.20
40287;DHT22;25998;46.604;13.610;2024-02-21T12:56:12;14.00;78.20
40287;DHT22;25998;46.604;13.610;2024-02-21T12:59:23;13.90;77.80
40287;DHT22;25998;46.604;13.610;2024-02-21T13:02:34;14.00;78.00
40287;DHT22;25998;46.604;13.610;2024-02-21T13:05:45;14.00;78.00
40287;DHT22;25998;46.604;13.610;2024-02-21T13:08:55;13.90;78.00
40287;DHT22;25998;46.604;13.610;2024-02-21T13:12:06;13.90;79.30
40287;DHT22;25998;46.604;13.610;2024-02-21T13:15:18;14.00;78.10
40287;DHT22;25998;46.604;13.610;2024-02-21T13:18:29;14.10;78.80
40287;DHT22;25998;46.604;13.610;2024-02-21T13:21:40;13.90;79.00
40287;DHT22;25998;46.604;13.610;2024-02-21T13:24:51;14.00;79.30
40287;DHT22;25998;46.604;13.610;2024-02-21T13:28:02;13.90;80.50
40287;DHT22;25998;46.604;13.610;2024-02-21T13:31:14;13.70;79.10
40287;DHT22;25998;46.604;13.610;2024-02-21T13:34:27;13.90;81.40
40287;DHT22;25998;46.604;13.610;2024-02-21T13:37:38;14.00;79.70
40287;DHT22;25998;46.604;13.610;2024-02-21T13:40:49;14.00;80.30
40287;DHT22;25998;46.604;13.610;2024-02-21T13:44:01;14.00;79.10
40287;DHT22;25998;46.604;13.610;2024-02-21T13:47:14;14.20;79.90
40287;DHT22;25998;46.604;13.610;2024-02-21T13:50:30;14.30;78.80
40287;DHT22;25998;46.604;13.610;2024-02-21T13:53:41;14.30;79.00
40287;DHT22;25998;46.604;13.610;2024-02-21T13:56:53;14.60;78.40
40287;DHT22;25998;46.604;13.610;2024-02-21T14:00:05;14.80;78.10
40287;DHT22;25998;46.604;13.610;2024-02-21T14:03:16;14.70;77.70
40287;DHT22;25998;46.604;13.610;2024-02-21T14:06:28;14.80;79.50
40287;DHT22;25998;46.604;13.610;2024-02-21T14:09:39;14.70;79.70
40287;DHT22;25998;46.604;13.610;2024-02-21T14:12:50;14.50;78.80
40287;DHT22;25998;46.604;13.610;2024-02-21T14:16:01;14.50;79.20
40287;DHT22;25998;46.604;13.610;2024-02-21T14:19:12;14.60;80.40
40287;DHT22;25998;46.604;13.610;2024-02-21T14:22:23;14.50;78.10
40287;DHT22;25998;46.604;13.610;2024-02-21T14:25:33;14.60;78.90
40287;DHT22;25998;46.604;13.610;2024-02-21T14:28:44;14.70;79.60
40287;DHT22;25998;46.604;13.610;2024-02-21T14:31:56;14.70;78.20
40287;DHT22;25998;46.604;13.610;2024-02-21T14:35:07;14.70;79.40
40287;DHT22;25998;46.604;13.610;2024-02-21T14:38:19;14.60;79.90
40287;DHT22;25998;46.604;13.610;2024-02-21T14:41:30;14.40;79.20
40287;DHT22;25998;46.604;13.610;2024-02-21T14:44:41;14.40;79.70
40287;DHT22;25998;46.604;13.610;2024-02-21T14:47:52;14.50;79.20
40287;DHT22;25998;46.604;13.610;2024-02-21T14:51:03;14.50;79.90
40287;DHT22;25998;46.604;13.610;2024-02-21T14:54:14;14.50;78.70
40287;DHT22;25998;46.604;13.610;2024-02-21T14:57:25;14.50;79.10
40287;DHT22;25998;46.604;13.610;2024-02-21T15:00:36;14.40;79.50
40287;DHT22;25998;46.604;13.610;2024-02-21T15:03:46;14.30;80.20
40287;DHT22;25998;46.604;13.610;2024-02-21T15:06:57;14.20;81.80
40287;DHT22;25998;46.604;13.610;2024-02-21T15:10:08;14.10;80.20
40287;DHT22;25998;46.604;13.610;2024-02-21T15:13:19;14.10;80.20
40287;DHT22;25998;46.604;13.610;2024-02-21T15:16:30;14.10;81.60
40287;DHT22;25998;46.604;13.610;2024-02-21T15:19:41;13.90;81.00
40287;DHT22;25998;46.604;13.610;2024-02-21T15:22:54;13.90;80.10
40287;DHT22;25998;46.604;13.610;2024-02-21T15:26:05;13.90;79.40
40287;DHT22;25998;46.604;13.610;2024-02-21T15:29:16;13.90;82.30
40287;DHT22;25998;46.604;13.610;2024-02-21T15:32:27;13.90;81.70
40287;DHT22;25998;46.604;13.610;2024-02-21T15:35:38;13.80;80.60
40287;DHT22;25998;46.604;13.610;2024-02-21T15:38:49;13.70;81.80
40287;DHT22;25998;46.604;13.610;2024-02-21T15:42:00;13.70;81.70
40287;DHT22;25998;46.604;13.610;2024-02-21T15:45:11;13.60;82.20
40287;DHT22;25998;46.604;13.610;2024-02-21T15:48:21;13.60;83.00
40287;DHT22;25998;46.604;13.610;2024-02-21T15:51:34;13.50;83.70
40287;DHT22;25998;46.604;13.610;2024-02-21T15:54:45;13.40;85.60
40287;DHT22;25998;46.604;13.610;2024-02-21T15:57:56;13.30;83.50
40287;DHT22;25998;46.604;13.610;2024-02-21T16:01:07;13.20;83.70
40287;DHT22;25998;46.604;13.610;2024-02-21T16:04:21;13.20;83.90
40287;DHT22;25998;46.604;13.610;2024-02-21T16:07:33;13.00;86.90
40287;DHT22;25998;46.604;13.610;2024-02-21T16:10:44;12.50;90.30
40287;DHT22;25998;46.604;13.610;2024-02-21T16:13:55;12.10;91.00
40287;DHT22;25998;46.604;13.610;2024-02-21T16:17:06;11.80;91.60
40287;DHT22;25998;46.604;13.610;2024-02-21T16:20:18;11.60;91.60
40287;DHT22;25998;46.604;13.610;2024-02-21T16:23:28;11.50;92.00
40287;DHT22;25998;46.604;13.610;2024-02-21T16:26:39;11.20;92.10
40287;DHT22;25998;46.604;13.610;2024-02-21T16:29:50;11.10;92.00
40287;DHT22;25998;46.604;13.610;2024-02-21T16:33:01;10.80;92.70
40287;DHT22;25998;46.604;13.610;2024-02-21T16:36:22;10.70;92.70
40287;DHT22;25998;46.604;13.610;2024-02-21T16:39:33;10.60;92.90
40287;DHT22;25998;46.604;13.610;2024-02-21T16:42:44;10.50;92.80
40287;DHT22;25998;46.604;13.610;2024-02-21T16:45:55;10.30;93.60
40287;DHT22;25998;46.604;13.610;2024-02-21T16:49:06;10.10;93.80
40287;DHT22;25998;46.604;13.610;2024-02-21T16:52:17;10.00;93.90
40287;DHT22;25998;46.604;13.610;2024-02-21T16:55:29;10.00;93.20
40287;DHT22;25998;46.604;13.610;2024-02-21T16:58:44;9.90;94.10
40287;DHT22;25998;46.604;13.610;2024-02-21T17:01:55;9.90;94.30
40287;DHT22;25998;46.604;13.610;2024-02-21T17:05:07;9.80;93.70
40287;DHT22;25998;46.604;13.610;2024-02-21T17:08:18;9.90;93.80
40287;DHT22;25998;46.604;13.610;2024-02-21T17:11:29;9.70;94.30
40287;DHT22;25998;46.604;13.610;2024-02-21T17:14:40;9.60;94.10
40287;DHT22;25998;46.604;13.610;2024-02-21T17:17:51;9.50;94.40
40287;DHT22;25998;46.604;13.610;2024-02-21T17:21:02;9.50;94.30
40287;DHT22;25998;46.604;13.610;2024-02-21T17:24:13;9.50;94.30
40287;DHT22;25998;46.604;13.610;2024-02-21T17:27:24;9.30;94.70
40287;DHT22;25998;46.604;13.610;2024-02-21T17:30:35;9.20;94.60
40287;DHT22;25998;46.604;13.610;2024-02-21T17:33:47;9.10;94.90
40287;DHT22;25998;46.604;13.610;2024-02-21T17:36:58;9.00;94.70
40287;DHT22;25998;46.604;13.610;2024-02-21T17:40:09;8.90;95.00
40287;DHT22;25998;46.604;13.610;2024-02-21T17:43:20;8.70;95.50
40287;DHT22;25998;46.604;13.610;2024-02-21T17:46:31;8.80;95.30
40287;DHT22;25998;46.604;13.610;2024-02-21T17:49:42;8.70;95.30
40287;DHT22;25998;46.604;13.610;2024-02-21T17:52:54;8.60;95.40
40287;DHT22;25998;46.604;13.610;2024-02-21T17:56:07;8.60;95.70
40287;DHT22;25998;46.604;13.610;2024-02-21T17:59:18;8.60;95.60
40287;DHT22;25998;46.604;13.610;2024-02-21T18:02:29;8.50;95.80
40287;DHT22;25998;46.604;13.610;2024-02-21T18:05:40;8.50;95.90
40287;DHT22;25998;46.604;13.610;2024-02-21T18:08:51;8.40;96.10
40287;DHT22;25998;46.604;13.610;2024-02-21T18:12:04;8.30;96.30
40287;DHT22;25998;46.604;13.610;2024-02-21T18:15:15;8.30;96.20
40287;DHT22;25998;46.604;13.610;2024-02-21T18:18:25;8.40;96.30
40287;DHT22;25998;46.604;13.610;2024-02-21T18:21:36;8.30;96.60
40287;DHT22;25998;46.604;13.610;2024-02-21T18:24:47;8.30;96.50
40287;DHT22;25998;46.604;13.610;2024-02-21T18:27:58;8.40;96.20
40287;DHT22;25998;46.604;13.610;2024-02-21T18:31:09;8.40;96.30
40287;DHT22;25998;46.604;13.610;2024-02-21T18:34:20;8.30;96.20
40287;DHT22;25998;46.604;13.610;2024-02-21T18:37:31;8.50;96.10
40287;DHT22;25998;46.604;13.610;2024-02-21T18:40:42;8.30;96.50
40287;DHT22;25998;46.604;13.610;2024-02-21T18:43:53;8.20;96.50
40287;DHT22;25998;46.604;13.610;2024-02-21T18:47:04;8.20;96.60
40287;DHT22;25998;46.604;13.610;2024-02-21T18:50:15;8.10;96.60
40287;DHT22;25998;46.604;13.610;2024-02-21T18:53:26;8.10;96.80
40287;DHT22;25998;46.604;13.610;2024-02-21T18:56:37;8.00;96.70
40287;DHT22;25998;46.604;13.610;2024-02-21T18:59:48;8.10;96.50
40287;DHT22;25998;46.604;13.610;2024-02-21T19:02:59;8.00;96.90
40287;DHT22;25998;46.604;13.610;2024-02-21T19:06:10;8.00;97.00
40287;DHT22;25998;46.604;13.610;2024-02-21T19:09:23;7.90;97.00
40287;DHT22;25998;46.604;13.610;2024-02-21T19:12:35;7.80;97.10
40287;DHT22;25998;46.604;13.610;2024-02-21T19:15:47;7.70;97.70
40287;DHT22;25998;46.604;13.610;2024-02-21T19:18:57;7.50;98.00
40287;DHT22;25998;46.604;13.610;2024-02-21T19:22:08;7.40;98.10
40287;DHT22;25998;46.604;13.610;2024-02-21T19:25:19;7.40;98.00
40287;DHT22;25998;46.604;13.610;2024-02-21T19:28:31;7.40;98.00
40287;DHT22;25998;46.604;13.610;2024-02-21T19:31:42;7.50;98.00
40287;DHT22;25998;46.604;13.610;2024-02-21T19:34:53;7.40;98.10
40287;DHT22;25998;46.604;13.610;2024-02-21T19:38:04;7.50;98.00
40287;DHT22;25998;46.604;13.610;2024-02-21T19:41:15;7.40;98.10
40287;DHT22;25998;46.604;13.610;2024-02-21T19:44:26;7.30;98.30
40287;DHT22;25998;46.604;13.610;2024-02-21T19:47:37;7.20;98.40
40287;DHT22;25998;46.604;13.610;2024-02-21T19:50:48;7.10;98.60
40287;DHT22;25998;46.604;13.610;2024-02-21T19:53:59;7.00;98.70
40287;DHT22;25998;46.604;13.610;2024-02-21T19:57:10;7.00;99.00
40287;DHT22;25998;46.604;13.610;2024-02-21T20:00:23;6.90;99.00
40287;DHT22;25998;46.604;13.610;2024-02-21T20:03:34;6.90;99.00
40287;DHT22;25998;46.604;13.610;2024-02-21T20:06:45;7.00;98.90